Time;durP1;ratioP1;P1;durP2;ratioP2;P2;SDS_P1;SDS_P2;PMS_P1;PMS_P2;Temp;Humidity;BMP_temperature;BMP_pressure;BME280_temperature;BME280_humidity;BME280_pressure;Samples;Min_cycle;Max_cycle;Signal;HPM_P1;HPM_P2
2022/01/07 00:01:21;;;;;;;88.40;57.25;;;2.80;99.90;;;;;;6106993;23;20154;-85
2022/01/07 00:03:47;;;;;;;92.97;60.47;;;2.80;99.90;;;;;;6131534;23;20162;-84
2022/01/07 00:06:12;;;;;;;94.20;61.47;;;2.80;99.90;;;;;;6131976;23;20143;-85
2022/01/07 00:08:38;;;;;;;89.53;50.27;;;2.80;99.90;;;;;;6132639;23;20143;-85
2022/01/07 00:11:21;;;;;;;106.40;62.33;;;2.70;99.90;;;;;;6132649;23;20138;-85
2022/01/07 00:13:47;;;;;;;86.68;57.25;;;2.70;99.90;;;;;;6106418;23;20163;-85
2022/01/07 00:16:16;;;;;;;104.47;62.63;;;2.70;99.90;;;;;;6106542;23;20147;-85
2022/01/07 00:18:45;;;;;;;87.57;51.53;;;2.70;99.90;;;;;;6140805;23;20388;-85
2022/01/07 00:21:11;;;;;;;93.85;54.58;;;2.70;99.90;;;;;;6161581;23;20238;-85
2022/01/07 00:23:41;;;;;;;90.32;55.40;;;2.80;99.90;;;;;;6135655;23;20635;-85
2022/01/07 00:26:07;;;;;;;87.13;56.83;;;2.80;99.90;;;;;;6136360;23;20157;-85
2022/01/07 00:28:32;;;;;;;86.47;54.40;;;2.70;99.90;;;;;;6162376;23;20142;-85
2022/01/07 00:30:58;;;;;;;91.60;58.10;;;2.70;99.90;;;;;;6136322;23;20381;-85
2022/01/07 00:33:24;;;;;;;86.23;47.13;;;2.70;99.90;;;;;;6161119;23;20922;-85
2022/01/07 00:35:52;;;;;;;87.97;52.43;;;2.70;99.90;;;;;;6161825;23;20138;-85
2022/01/07 00:38:20;;;;;;;89.65;57.75;;;2.70;99.90;;;;;;6161991;23;20365;-85
2022/01/07 00:40:46;;;;;;;92.90;55.40;;;2.70;99.90;;;;;;6161697;23;20221;-85
2022/01/07 00:43:12;;;;;;;93.13;57.37;;;2.70;99.90;;;;;;6161672;23;20142;-85
2022/01/07 00:45:38;;;;;;;93.10;63.70;;;2.70;99.90;;;;;;6161679;23;20162;-85
2022/01/07 00:48:04;;;;;;;93.40;69.17;;;2.60;99.90;;;;;;6161632;23;20172;-85
2022/01/07 00:50:32;;;;;;;90.75;64.78;;;2.70;99.90;;;;;;6161686;23;20600;-85
2022/01/07 00:53:01;;;;;;;95.30;69.47;;;2.70;99.90;;;;;;6162094;23;20188;-85
2022/01/07 00:55:27;;;;;;;98.95;85.30;;;2.70;99.90;;;;;;6161556;23;20233;-85
2022/01/07 00:57:54;;;;;;;92.77;77.87;;;2.60;99.90;;;;;;6135721;23;20477;-85
2022/01/07 01:00:24;;;;;;;96.85;83.75;;;2.60;99.90;;;;;;6135881;23;20373;-85
2022/01/07 01:02:51;;;;;;;99.78;79.30;;;2.70;99.90;;;;;;6162901;23;20149;-85
2022/01/07 01:05:27;;;;;;;92.88;60.15;;;2.70;99.90;;;;;;6135489;23;20173;-85
2022/01/07 01:07:53;;;;;;;93.32;73.00;;;2.70;99.90;;;;;;6136184;23;20200;-85
2022/01/07 01:10:24;;;;;;;91.97;62.13;;;2.70;99.90;;;;;;6135431;23;20225;-85
2022/01/07 01:12:51;;;;;;;92.55;70.63;;;2.80;99.90;;;;;;6161855;23;20748;-85
2022/01/07 01:15:21;;;;;;;102.60;75.10;;;2.70;99.90;;;;;;6161696;23;20182;-85
2022/01/07 01:17:48;;;;;;;100.90;71.15;;;2.80;99.90;;;;;;6136553;23;20177;-85
2022/01/07 01:26:33;;;;;;;89.45;57.00;;;2.80;99.90;;;;;;6047895;23;20160;-87
2022/01/07 01:29:41;;;;;;;89.40;55.53;;;2.80;99.90;;;;;;6108009;23;20169;-88
2022/01/07 01:36:22;;;;;;;84.85;48.28;;;2.80;99.90;;;;;;6004347;23;20199;-88
2022/01/07 01:38:50;;;;;;;88.90;61.20;;;2.80;99.90;;;;;;6077052;23;20207;-88
2022/01/07 01:41:57;;;;;;;95.00;66.60;;;2.80;99.90;;;;;;6110628;23;20577;-88
2022/01/07 01:44:51;;;;;;;92.80;73.20;;;2.80;99.90;;;;;;6017596;23;20303;-88
2022/01/07 01:47:57;;;;;;;;;;;;;;;;;;;;;
2022/01/07 02:12:39;;;;;;;;;;;;;;;;;;;;;
2022/01/07 02:23:04;;;;;;;87.38;44.63;;;2.90;99.90;;;;;;5971802;23;20159;-87
2022/01/07 02:28:49;;;;;;;82.80;42.47;;;2.90;99.90;;;;;;6202249;23;20591;-88
2022/01/07 02:32:19;;;;;;;89.78;56.15;;;3.00;99.90;;;;;;6132524;23;20165;-88
2022/01/07 02:35:46;;;;;;;;;;;;;;;;;;;;;
2022/01/07 02:38:38;;;;;;;87.55;43.75;;;3.00;99.90;;;;;;6180222;23;20176;-88
2022/01/07 02:44:11;;;;;;;83.68;44.47;;;3.10;99.90;;;;;;6201929;23;20165;-88
2022/01/07 02:47:16;;;;;;;84.35;41.17;;;3.10;99.90;;;;;;6173612;23;20141;-88
2022/01/07 02:50:13;;;;;;;83.03;42.72;;;3.20;99.90;;;;;;6199261;23;20216;-88
2022/01/07 02:52:58;;;;;;;89.90;52.13;;;3.20;99.90;;;;;;6196659;23;20157;-88
2022/01/07 02:55:42;;;;;;;86.85;51.63;;;3.20;99.90;;;;;;6168447;23;20192;-88
2022/01/07 02:58:14;;;;;;;82.78;41.40;;;3.20;99.90;;;;;;6191154;23;20605;-87
2022/01/07 03:00:42;;;;;;;91.80;66.38;;;3.20;99.90;;;;;;6189647;23;20121;-87
2022/01/07 03:03:17;;;;;;;88.25;56.13;;;3.10;99.90;;;;;;6190733;23;20149;-88
2022/01/07 03:06:01;;;;;;;85.20;50.15;;;3.10;99.90;;;;;;6165289;23;20180;-88
2022/01/07 03:08:38;;;;;;;85.13;49.95;;;3.20;99.90;;;;;;6154106;23;20591;-88
2022/01/07 03:11:50;;;;;;;86.53;50.80;;;3.20;99.90;;;;;;6162663;23;20148;-88
2022/01/07 03:14:23;;;;;;;84.38;47.42;;;3.10;99.90;;;;;;6043838;23;20180;-88
2022/01/07 03:17:01;;;;;;;86.68;47.40;;;3.10;99.90;;;;;;6152941;23;20249;-88
2022/01/07 03:19:34;;;;;;;83.50;45.75;;;3.20;99.90;;;;;;6162922;23;20149;-88
2022/01/07 03:22:06;;;;;;;86.65;49.80;;;3.10;99.90;;;;;;6163087;23;20175;-88
2022/01/07 03:24:52;;;;;;;87.47;54.25;;;3.20;99.90;;;;;;6190723;23;20167;-88
2022/01/07 03:27:29;;;;;;;87.35;44.15;;;3.10;99.90;;;;;;6163384;23;20140;-88
2022/01/07 03:30:00;;;;;;;83.30;49.78;;;3.20;99.90;;;;;;6163105;23;20168;-88
2022/01/07 03:32:30;;;;;;;89.40;58.50;;;3.10;99.90;;;;;;6163349;23;20169;-88
2022/01/07 03:35:02;;;;;;;97.20;68.35;;;3.00;99.90;;;;;;6188660;23;20507;-88
2022/01/07 03:37:39;;;;;;;88.28;60.70;;;3.00;99.90;;;;;;6162638;23;20148;-88
2022/01/07 03:40:21;;;;;;;89.32;63.80;;;3.00;99.90;;;;;;6159699;23;20610;-88
2022/01/07 03:43:00;;;;;;;87.25;52.58;;;3.10;99.90;;;;;;6190820;23;20149;-88
2022/01/07 03:45:29;;;;;;;88.60;62.65;;;3.00;99.90;;;;;;6171223;23;20172;-87
2022/01/07 03:48:01;;;;;;;90.43;49.50;;;3.00;99.90;;;;;;6170949;23;20176;-88
2022/01/07 03:50:36;;;;;;;94.10;70.38;;;3.00;99.90;;;;;;6194776;23;20133;-88
2022/01/07 03:53:02;;;;;;;102.45;78.80;;;3.00;99.90;;;;;;6159393;23;20180;-88
2022/01/07 03:55:34;;;;;;;113.40;101.60;;;2.90;99.90;;;;;;6162874;23;20216;-88
2022/01/07 03:58:21;;;;;;;107.65;96.65;;;2.80;99.90;;;;;;6163419;23;20145;-87
2022/01/07 04:00:50;;;;;;;107.88;96.70;;;2.80;99.90;;;;;;6160792;23;20203;-87
2022/01/07 04:03:18;;;;;;;139.48;127.03;;;2.80;99.90;;;;;;6186685;23;20220;-87
2022/01/07 04:05:47;;;;;;;117.35;105.53;;;2.70;99.90;;;;;;6186362;23;20148;-87
2022/01/07 04:08:13;;;;;;;152.73;139.73;;;2.70;99.90;;;;;;6160370;23;20490;-86
2022/01/07 04:10:40;;;;;;;136.52;124.55;;;2.70;99.90;;;;;;6161265;23;20153;-87
2022/01/07 04:13:07;;;;;;;129.38;117.68;;;2.70;99.90;;;;;;6186425;23;20284;-87
2022/01/07 04:15:33;;;;;;;149.23;136.40;;;2.70;99.90;;;;;;6160157;23;20250;-87
2022/01/07 04:17:58;;;;;;;116.85;105.25;;;2.80;99.90;;;;;;6160477;23;20146;-86
2022/01/07 04:20:30;;;;;;;117.97;106.53;;;2.80;99.90;;;;;;6160128;23;20172;-87
2022/01/07 04:22:56;;;;;;;173.13;159.40;;;2.80;99.90;;;;;;6159988;23;20159;-87
2022/01/07 04:25:29;;;;;;;141.90;129.30;;;2.70;99.90;;;;;;6165684;23;20165;-88
2022/01/07 04:28:02;;;;;;;155.43;142.55;;;2.80;99.90;;;;;;6168246;23;20205;-88
2022/01/07 04:30:33;;;;;;;123.00;111.35;;;2.80;99.90;;;;;;6167326;23;20157;-88
2022/01/07 04:33:10;;;;;;;157.95;145.35;;;2.80;99.90;;;;;;6195325;23;20165;-88
2022/01/07 04:35:41;;;;;;;132.60;120.30;;;2.80;99.90;;;;;;6169446;23;20571;-87
2022/01/07 04:38:13;;;;;;;130.70;118.78;;;2.80;99.90;;;;;;6166887;23;20209;-88
2022/01/07 04:40:39;;;;;;;149.07;136.40;;;2.80;99.90;;;;;;6167401;23;20172;-88
2022/01/07 04:43:10;;;;;;;197.00;182.43;;;2.80;99.90;;;;;;6192877;23;20137;-88
2022/01/07 04:45:36;;;;;;;124.70;113.25;;;2.80;99.90;;;;;;6166414;23;20404;-88
2022/01/07 04:48:06;;;;;;;180.07;166.15;;;2.80;99.90;;;;;;6167103;23;20156;-88
2022/01/07 04:50:32;;;;;;;145.43;132.60;;;2.80;99.90;;;;;;6166499;23;20145;-88
2022/01/07 04:52:58;;;;;;;154.90;142.05;;;2.90;99.90;;;;;;6167210;23;20165;-88
2022/01/07 04:55:35;;;;;;;143.45;131.00;;;2.90;99.90;;;;;;6193827;23;20165;-87
2022/01/07 04:58:01;;;;;;;136.60;123.97;;;2.90;99.90;;;;;;6168422;23;20354;-88
2022/01/07 05:00:30;;;;;;;118.60;106.78;;;2.90;99.90;;;;;;6168113;23;20488;-88
2022/01/07 05:02:56;;;;;;;104.60;93.70;;;3.00;99.90;;;;;;6167778;23;20149;-88
2022/01/07 05:05:22;;;;;;;110.20;98.70;;;3.10;99.90;;;;;;6194656;23;20219;-88
2022/01/07 05:07:48;;;;;;;95.32;80.22;;;3.00;99.90;;;;;;6168563;23;20172;-88
2022/01/07 05:10:17;;;;;;;97.93;87.17;;;3.10;99.90;;;;;;6169820;23;20153;-88
2022/01/07 05:12:46;;;;;;;93.18;74.63;;;3.10;99.90;;;;;;6169816;23;20412;-87
2022/01/07 05:15:13;;;;;;;93.93;76.38;;;3.10;99.90;;;;;;6169507;23;20165;-88
2022/01/07 05:17:40;;;;;;;94.68;75.93;;;3.10;99.90;;;;;;6170222;23;20145;-88
2022/01/07 05:20:06;;;;;;;95.18;71.05;;;3.10;99.90;;;;;;6170148;23;20146;-88
2022/01/07 05:22:32;;;;;;;88.60;55.22;;;3.20;99.90;;;;;;6169484;23;20164;-88
2022/01/07 05:25:02;;;;;;;89.00;65.57;;;3.20;99.90;;;;;;6171748;23;20169;-88
2022/01/07 05:27:31;;;;;;;101.05;80.93;;;3.20;99.90;;;;;;6171852;23;20400;-88
2022/01/07 05:30:00;;;;;;;95.32;60.67;;;3.20;99.90;;;;;;6197805;23;20150;-88
2022/01/07 05:32:26;;;;;;;90.00;60.88;;;3.20;99.90;;;;;;6197444;23;20189;-88
2022/01/07 05:34:55;;;;;;;89.87;63.40;;;3.20;99.90;;;;;;6197429;23;20157;-88
2022/01/07 05:37:20;;;;;;;88.55;56.08;;;3.20;99.90;;;;;;6198946;23;20419;-88
2022/01/07 05:39:49;;;;;;;85.93;53.07;;;3.20;99.90;;;;;;6171679;23;20154;-88
2022/01/07 05:42:27;;;;;;;86.45;49.20;;;3.30;99.90;;;;;;6198468;23;21000;-88
2022/01/07 05:44:59;;;;;;;81.53;44.47;;;3.40;99.90;;;;;;6172386;23;20177;-88
2022/01/07 05:47:25;;;;;;;85.75;47.20;;;3.40;99.90;;;;;;6197176;23;20161;-88
2022/01/07 05:49:55;;;;;;;81.32;44.50;;;3.50;99.90;;;;;;6170177;23;20149;-88
2022/01/07 05:52:21;;;;;;;85.20;45.03;;;3.40;99.90;;;;;;6168508;23;20169;-88
2022/01/07 05:54:48;;;;;;;92.20;43.23;;;3.50;99.90;;;;;;6165808;23;20248;-88
2022/01/07 05:57:14;;;;;;;87.88;48.22;;;3.50;99.90;;;;;;6165281;23;20149;-88
2022/01/07 05:59:40;;;;;;;86.77;47.67;;;3.50;99.90;;;;;;6189513;23;20138;-88
2022/01/07 06:02:05;;;;;;;83.30;48.53;;;3.60;99.90;;;;;;6189388;23;20771;-88
2022/01/07 06:04:31;;;;;;;84.87;46.23;;;3.60;99.90;;;;;;6162162;23;20396;-88
2022/01/07 06:06:57;;;;;;;84.13;47.60;;;3.60;99.90;;;;;;6161522;23;20299;-88
2022/01/07 06:09:23;;;;;;;86.80;50.33;;;3.60;99.90;;;;;;6187789;23;20456;-88
2022/01/07 06:11:51;;;;;;;88.50;53.93;;;3.60;99.90;;;;;;6187506;23;20409;-88
2022/01/07 06:14:18;;;;;;;85.70;52.33;;;3.60;99.90;;;;;;6160623;23;20436;-89
2022/01/07 06:16:43;;;;;;;84.45;44.45;;;3.70;99.90;;;;;;6160748;23;20145;-89
2022/01/07 06:19:09;;;;;;;80.65;38.88;;;3.70;99.90;;;;;;6187700;23;20144;-89
2022/01/07 06:21:35;;;;;;;86.17;51.17;;;3.70;99.90;;;;;;6162507;23;20150;-88
2022/01/07 06:24:01;;;;;;;84.97;48.33;;;3.60;99.90;;;;;;6188155;23;20161;-88
2022/01/07 06:26:31;;;;;;;85.60;47.50;;;3.60;99.90;;;;;;6187318;23;20148;-87
2022/01/07 06:28:57;;;;;;;86.40;47.67;;;3.60;99.90;;;;;;6186987;23;20145;-87
2022/01/07 06:31:25;;;;;;;83.03;46.67;;;3.60;99.90;;;;;;6160775;23;20164;-87
2022/01/07 06:33:51;;;;;;;83.88;44.15;;;3.60;99.90;;;;;;6187537;23;20389;-87
2022/01/07 06:36:17;;;;;;;84.17;54.00;;;3.60;99.90;;;;;;6160352;23;20145;-87
2022/01/07 06:38:43;;;;;;;85.67;51.43;;;3.50;99.90;;;;;;6186910;23;20515;-87
2022/01/07 06:41:08;;;;;;;91.80;59.33;;;3.60;99.90;;;;;;6161052;23;20232;-87
2022/01/07 06:43:37;;;;;;;91.60;75.63;;;3.50;99.90;;;;;;6187111;23;20369;-87
2022/01/07 06:46:03;;;;;;;89.05;64.72;;;3.50;99.90;;;;;;6160686;23;20391;-87
2022/01/07 06:48:29;;;;;;;84.43;54.20;;;3.60;99.90;;;;;;6187029;23;20169;-87
2022/01/07 06:50:57;;;;;;;86.17;52.23;;;3.60;99.90;;;;;;6161140;23;20380;-87
2022/01/07 06:53:23;;;;;;;94.28;71.22;;;3.60;99.90;;;;;;6186600;23;20161;-87
2022/01/07 06:55:52;;;;;;;87.40;59.13;;;3.60;99.90;;;;;;6186656;23;20160;-87
2022/01/07 06:58:17;;;;;;;83.90;52.88;;;3.60;99.90;;;;;;6160706;23;20150;-87
2022/01/07 07:00:46;;;;;;;81.20;45.23;;;3.70;99.90;;;;;;6187231;23;20188;-87
2022/01/07 07:03:12;;;;;;;81.78;44.80;;;3.70;99.90;;;;;;6187002;23;20532;-87
2022/01/07 07:05:38;;;;;;;79.97;41.10;;;3.80;99.90;;;;;;6187120;23;20181;-87
2022/01/07 07:08:06;;;;;;;83.27;46.53;;;3.70;99.90;;;;;;6187590;23;20141;-88
2022/01/07 07:10:32;;;;;;;82.43;44.20;;;3.70;99.90;;;;;;6161298;23;20380;-87
2022/01/07 07:12:58;;;;;;;85.77;58.73;;;3.70;99.90;;;;;;6187442;23;20166;-87
2022/01/07 07:15:26;;;;;;;82.07;42.70;;;3.70;99.90;;;;;;6187004;23;20159;-86
2022/01/07 07:17:52;;;;;;;84.45;43.22;;;3.70;99.90;;;;;;6160047;23;20586;-87
2022/01/07 07:20:37;;;;;;;84.20;48.57;;;3.70;99.90;;;;;;6134215;23;20166;-89
2022/01/07 07:36:51;;;;;;;87.43;56.08;;;3.70;99.90;;;;;;6129951;23;20194;-89
2022/01/07 07:40:19;;;;;;;82.07;41.22;;;3.80;99.90;;;;;;5990319;23;20172;-89
2022/01/07 07:43:36;;;;;;;83.10;51.72;;;3.80;99.90;;;;;;6107196;23;20165;-89
2022/01/07 07:49:52;;;;;;;77.63;34.95;;;3.80;99.90;;;;;;5915042;24;20156;-89
2022/01/07 07:53:17;;;;;;;;;;;;;;;;;;;;;
2022/01/07 08:02:59;;;;;;;81.68;45.92;;;3.90;99.90;;;;;;5858053;24;20159;-89
2022/01/07 08:43:09;;;;;;;80.30;40.75;;;4.20;99.90;;;;;;6114347;23;20221;-86
2022/01/07 08:53:27;;;;;;;;;;;;;;;;;;;;;
2022/01/07 08:56:35;;;;;;;82.10;43.63;;;4.30;99.90;;;;;;5981763;24;20178;-88
2022/01/07 10:48:33;;;;;;;;;;;;;;;;;;;;;
2022/01/07 10:55:18;;;;;;;70.82;14.63;;;5.30;99.90;;;;;;6023461;23;20681;-89
2022/01/07 11:32:25;;;;;;;73.97;20.17;;;6.40;99.90;;;;;;5929650;24;20197;-88
2022/01/07 11:41:05;;;;;;;74.18;20.48;;;6.10;99.90;;;;;;6135659;23;20248;-89
2022/01/07 11:53:20;;;;;;;;;;;;;;;;;;;;;
2022/01/07 12:19:02;;;;;;;;;;;;;;;;;;;;;
2022/01/07 13:52:42;;;;;;;75.30;20.45;;;5.90;99.90;;;;;;6082803;23;20536;-86
2022/01/07 14:05:10;;;;;;;80.07;36.00;;;5.90;99.90;;;;;;6016010;23;20180;-86
2022/01/07 14:08:21;;;;;;;92.45;61.83;;;6.10;99.90;;;;;;6015550;23;20152;-85
2022/01/07 14:11:33;;;;;;;80.38;27.33;;;6.20;99.90;;;;;;6014907;23;20149;-86
2022/01/07 14:21:32;;;;;;;82.90;31.25;;;6.00;99.90;;;;;;6073060;23;20188;-86
2022/01/07 14:27:06;;;;;;;95.93;65.85;;;6.00;99.90;;;;;;6133415;23;20198;-85
2022/01/07 14:30:15;;;;;;;89.80;58.90;;;6.10;99.90;;;;;;6133288;23;20130;-85
2022/01/07 14:36:26;;;;;;;94.35;67.93;;;6.10;99.90;;;;;;6132766;23;20257;-85
2022/01/07 14:39:25;;;;;;;;;;;;;;;;;;;;;
2022/01/07 14:41:53;;;;;;;77.38;27.38;;;5.90;99.90;;;;;;6133671;23;20174;-85
2022/01/07 14:47:56;;;;;;;74.55;23.83;;;5.90;99.90;;;;;;6056961;23;20150;-86
2022/01/07 14:51:05;;;;;;;;;;;;;;;;;;;;;
2022/01/07 14:53:43;;;;;;;77.00;23.42;;;5.90;99.90;;;;;;6132164;23;20242;-85
2022/01/07 14:56:13;;;;;;;77.78;24.52;;;5.90;99.90;;;;;;6106786;23;20138;-85
2022/01/07 14:59:00;;;;;;;78.47;26.52;;;5.80;99.90;;;;;;6107736;23;20593;-85
2022/01/07 15:01:38;;;;;;;75.82;24.90;;;5.80;99.90;;;;;;6107942;23;20150;-85
2022/01/07 15:07:06;;;;;;;77.90;26.17;;;5.70;99.90;;;;;;6132060;23;20197;-84
2022/01/07 15:10:12;;;;;;;;;;;;;;;;;;;;;
2022/01/07 15:13:25;;;;;;;76.45;26.05;;;5.70;99.90;;;;;;6133131;23;20697;-84
2022/01/07 15:21:24;;;;;;;77.03;27.65;;;5.50;99.90;;;;;;6104570;23;20154;-84
2022/01/07 15:24:36;;;;;;;77.78;31.20;;;5.60;99.90;;;;;;6078177;23;20182;-85
2022/01/07 15:27:17;;;;;;;77.60;33.13;;;5.50;99.90;;;;;;5931554;24;20151;-84
2022/01/07 15:29:46;;;;;;;75.40;25.25;;;5.50;99.90;;;;;;5909526;23;20151;-84
2022/01/07 15:32:21;;;;;;;82.03;39.05;;;5.50;99.90;;;;;;6046299;23;20176;-84
2022/01/07 15:35:03;;;;;;;76.50;25.00;;;5.50;99.90;;;;;;6103145;23;20158;-84
2022/01/07 15:37:50;;;;;;;79.93;21.65;;;5.40;99.90;;;;;;6079432;23;20222;-84
2022/01/07 15:40:27;;;;;;;79.97;23.23;;;5.50;99.90;;;;;;6078239;23;20157;-84
2022/01/07 15:43:09;;;;;;;75.78;23.95;;;5.50;99.90;;;;;;6104020;23;20151;-84
2022/01/07 15:45:59;;;;;;;77.53;26.63;;;5.50;99.90;;;;;;6079412;23;20545;-84
2022/01/07 15:48:29;;;;;;;85.18;48.28;;;5.40;99.90;;;;;;6078514;23;20156;-84
2022/01/07 15:50:57;;;;;;;82.55;40.67;;;5.50;99.90;;;;;;6074826;23;20160;-85
2022/01/07 15:53:44;;;;;;;79.72;31.23;;;5.40;99.90;;;;;;6078358;23;20175;-84
2022/01/07 15:56:31;;;;;;;75.20;26.45;;;5.30;99.90;;;;;;6074636;23;20222;-84
2022/01/07 15:59:01;;;;;;;74.80;23.83;;;5.20;99.90;;;;;;6104055;23;20128;-84
2022/01/07 16:01:36;;;;;;;74.20;20.05;;;5.20;99.90;;;;;;6077980;23;20178;-84
2022/01/07 16:04:11;;;;;;;72.32;18.85;;;5.10;99.90;;;;;;6074600;23;20167;-84
2022/01/07 16:06:38;;;;;;;74.68;25.67;;;5.10;99.90;;;;;;6077254;23;20223;-84
2022/01/07 16:09:23;;;;;;;73.90;20.33;;;5.00;99.90;;;;;;6078629;23;20227;-83
2022/01/07 16:12:25;;;;;;;84.07;29.25;;;5.00;99.90;;;;;;6076812;23;20214;-84
2022/01/07 16:15:19;;;;;;;82.32;36.47;;;5.00;99.90;;;;;;6073499;23;20197;-84
2022/01/07 16:18:43;;;;;;;86.65;52.67;;;4.90;99.90;;;;;;6076914;23;20152;-83
2022/01/07 16:21:45;;;;;;;97.88;79.80;;;4.80;99.90;;;;;;6042073;23;20226;-84
2022/01/07 16:24:53;;;;;;;85.20;56.55;;;4.70;99.90;;;;;;6100885;23;20199;-84
2022/01/07 16:27:43;;;;;;;85.03;55.55;;;4.80;99.90;;;;;;6076131;23;20179;-83
2022/01/07 16:33:16;;;;;;;;;;;;;;;;;;;;;
2022/01/07 16:36:06;;;;;;;88.68;68.97;;;4.80;99.90;;;;;;6102224;23;20208;-83
2022/01/07 16:38:52;;;;;;;90.05;65.78;;;4.80;99.90;;;;;;6077531;23;20154;-83
2022/01/07 16:41:59;;;;;;;93.53;77.43;;;4.80;99.90;;;;;;6102348;23;20124;-83
2022/01/07 16:44:38;;;;;;;;;;;;;;;;;;;;;
2022/01/07 16:47:44;;;;;;;89.05;67.65;;;4.90;99.90;;;;;;6102052;23;20222;-81
2022/01/07 16:54:02;;;;;;;82.50;47.75;;;4.90;99.90;;;;;;5986347;23;20185;-83
2022/01/07 16:57:20;;;;;;;79.53;38.15;;;5.00;99.90;;;;;;5986017;23;20150;-83
2022/01/07 17:00:16;;;;;;;74.85;23.42;;;5.10;99.90;;;;;;5933155;24;20269;-83
2022/01/07 17:03:28;;;;;;;71.63;16.45;;;5.10;99.90;;;;;;6076629;23;20154;-82
2022/01/07 17:06:08;;;;;;;72.18;17.52;;;5.10;99.90;;;;;;6097491;23;20509;-83
2022/01/07 17:09:05;;;;;;;74.30;21.13;;;5.00;99.90;;;;;;6092647;23;20158;-84
2022/01/07 17:12:17;;;;;;;73.57;20.75;;;5.10;99.90;;;;;;6075638;23;20490;-84
2022/01/07 17:15:13;;;;;;;74.03;18.50;;;5.00;99.90;;;;;;6100382;23;20171;-83
2022/01/07 17:18:09;;;;;;;70.78;14.63;;;5.10;99.90;;;;;;6071196;23;20662;-83
2022/01/07 17:20:40;;;;;;;72.47;16.55;;;5.10;99.90;;;;;;6066347;23;20593;-83
2022/01/07 17:23:12;;;;;;;72.38;17.40;;;5.20;99.90;;;;;;6075748;23;20154;-83
2022/01/07 17:25:44;;;;;;;74.85;19.05;;;5.20;99.90;;;;;;6075026;23;20270;-83
2022/01/07 17:28:13;;;;;;;73.72;21.70;;;5.20;99.90;;;;;;6075799;23;20151;-82
2022/01/07 17:30:41;;;;;;;74.18;19.10;;;5.10;99.90;;;;;;6077276;23;20151;-83
2022/01/07 17:33:20;;;;;;;74.55;24.25;;;5.10;99.90;;;;;;6077164;23;20178;-82
2022/01/07 17:36:03;;;;;;;74.03;22.98;;;4.90;99.90;;;;;;6103366;23;20186;-82
2022/01/07 17:38:51;;;;;;;72.78;19.55;;;4.90;99.90;;;;;;6078358;23;20143;-83
2022/01/07 17:41:21;;;;;;;76.53;20.35;;;4.80;99.90;;;;;;6077844;23;20151;-83
2022/01/07 17:43:50;;;;;;;71.93;18.25;;;4.90;99.90;;;;;;6078460;23;20182;-84
2022/01/07 17:46:16;;;;;;;73.15;19.25;;;4.90;99.90;;;;;;6077460;23;20151;-83
2022/01/07 17:48:51;;;;;;;74.13;22.15;;;4.80;99.90;;;;;;6077226;23;20162;-82
2022/01/07 17:51:17;;;;;;;72.88;19.90;;;4.70;99.90;;;;;;6103692;23;20154;-82
2022/01/07 17:53:45;;;;;;;74.63;22.40;;;4.70;99.90;;;;;;6078186;23;20262;-82
2022/01/07 17:56:11;;;;;;;76.88;21.13;;;4.70;99.90;;;;;;6078649;23;20541;-83
2022/01/07 17:58:57;;;;;;;78.07;22.20;;;4.60;99.90;;;;;;6103398;23;20136;-82
2022/01/07 18:01:26;;;;;;;75.78;25.20;;;4.60;99.90;;;;;;6078018;23;20143;-82
2022/01/07 18:04:10;;;;;;;72.75;18.25;;;4.60;99.90;;;;;;6103020;23;20171;-82
2022/01/07 18:06:37;;;;;;;75.22;22.98;;;4.60;99.90;;;;;;6077272;23;20175;-83
2022/01/07 18:09:03;;;;;;;73.72;22.60;;;4.50;99.90;;;;;;6078239;23;20158;-82
2022/01/07 18:11:29;;;;;;;78.43;34.08;;;4.50;99.90;;;;;;6103294;23;20147;-82
2022/01/07 18:14:09;;;;;;;80.23;37.43;;;4.50;99.90;;;;;;6103444;23;20654;-82
2022/01/07 18:16:34;;;;;;;80.18;38.28;;;4.40;99.90;;;;;;6103645;23;20130;-82
2022/01/07 18:19:06;;;;;;;80.40;36.73;;;4.40;99.90;;;;;;6077227;23;20147;-82
2022/01/07 18:21:35;;;;;;;77.53;33.20;;;4.30;99.90;;;;;;6077250;23;20891;-82
2022/01/07 18:24:02;;;;;;;81.20;44.75;;;4.30;99.90;;;;;;6102157;23;20170;-82
2022/01/07 18:26:33;;;;;;;77.07;31.98;;;4.30;99.90;;;;;;6102240;23;20147;-83
2022/01/07 18:29:02;;;;;;;74.65;26.10;;;4.40;99.90;;;;;;6076840;23;20162;-83
2022/01/07 18:31:36;;;;;;;77.28;31.00;;;4.40;99.90;;;;;;6077270;23;20238;-83
2022/01/07 18:34:05;;;;;;;73.65;22.88;;;4.30;99.90;;;;;;6103152;23;20187;-83
2022/01/07 18:36:39;;;;;;;71.10;16.15;;;4.30;99.90;;;;;;6077389;23;20154;-83
2022/01/07 18:39:05;;;;;;;74.55;24.10;;;4.30;99.90;;;;;;6100736;23;20156;-82
2022/01/07 18:41:31;;;;;;;76.03;28.08;;;4.30;99.90;;;;;;6076880;23;20151;-82
2022/01/07 18:44:00;;;;;;;77.05;31.38;;;4.20;99.90;;;;;;6102273;23;20167;-83
2022/01/07 18:46:31;;;;;;;79.75;39.30;;;4.20;99.90;;;;;;6077490;23;20156;-83
2022/01/07 18:49:00;;;;;;;78.35;35.15;;;4.10;99.90;;;;;;6077306;23;20175;-83
2022/01/07 18:51:28;;;;;;;80.70;42.28;;;4.10;99.90;;;;;;6077633;23;20157;-83
2022/01/07 18:54:00;;;;;;;86.35;45.47;;;4.10;99.90;;;;;;6102625;23;20174;-82
2022/01/07 18:56:27;;;;;;;81.15;40.58;;;4.10;99.90;;;;;;6102919;23;20143;-83
2022/01/07 18:58:56;;;;;;;83.13;48.25;;;4.10;99.90;;;;;;6102958;23;20148;-83
2022/01/07 19:01:22;;;;;;;83.13;46.45;;;4.10;99.90;;;;;;6103198;23;20132;-83
2022/01/07 19:03:54;;;;;;;80.50;44.63;;;4.10;99.90;;;;;;6101778;23;20494;-82
2022/01/07 19:06:22;;;;;;;82.88;43.83;;;4.00;99.90;;;;;;6075943;23;20205;-82
2022/01/07 19:08:58;;;;;;;78.72;34.40;;;4.00;99.90;;;;;;6102198;23;20218;-82
2022/01/07 19:12:16;;;;;;;;;;;;;;;;;;;;;
2022/01/07 19:14:46;;;;;;;75.25;21.92;;;4.00;99.90;;;;;;6102578;23;20246;-83
2022/01/07 19:17:12;;;;;;;75.47;26.17;;;3.90;99.90;;;;;;6101661;23;20139;-83
2022/01/07 19:19:40;;;;;;;72.57;19.20;;;3.90;99.90;;;;;;6095701;23;20201;-88
2022/01/07 19:22:06;;;;;;;74.40;20.23;;;3.90;99.90;;;;;;6134074;23;20143;-88
2022/01/07 19:24:33;;;;;;;72.40;19.27;;;3.90;99.90;;;;;;6132893;23;20302;-88
2022/01/07 19:26:59;;;;;;;74.72;17.63;;;3.90;99.90;;;;;;6133962;23;20452;-88
2022/01/07 19:29:24;;;;;;;71.30;15.70;;;3.80;99.90;;;;;;6132353;23;20157;-88
2022/01/07 19:31:50;;;;;;;71.70;15.90;;;3.90;99.90;;;;;;6131674;23;20436;-88
2022/01/07 19:34:19;;;;;;;76.77;16.50;;;3.90;99.90;;;;;;6131931;23;20167;-88
2022/01/07 19:36:45;;;;;;;71.65;17.75;;;3.90;99.90;;;;;;6134218;23;20399;-88
2022/01/07 19:39:11;;;;;;;73.23;16.77;;;3.90;99.90;;;;;;6134015;23;20139;-88
2022/01/07 19:41:36;;;;;;;72.67;18.57;;;3.90;99.90;;;;;;6133917;23;20513;-88
2022/01/07 19:44:03;;;;;;;74.00;20.23;;;3.90;99.90;;;;;;6131807;23;20409;-88
2022/01/07 19:46:29;;;;;;;73.70;19.60;;;3.90;99.90;;;;;;6132920;23;20378;-88
2022/01/07 19:48:55;;;;;;;75.93;16.93;;;3.90;99.90;;;;;;6133706;23;20143;-88
2022/01/07 19:51:21;;;;;;;74.28;20.15;;;3.90;99.90;;;;;;6133883;23;20399;-89
2022/01/07 19:53:47;;;;;;;73.57;21.53;;;3.90;99.90;;;;;;6132737;23;20667;-88
2022/01/07 19:56:13;;;;;;;74.70;25.90;;;3.90;99.90;;;;;;6156793;23;20414;-88
2022/01/07 19:58:38;;;;;;;78.80;29.63;;;3.90;99.90;;;;;;6132096;23;20682;-88
2022/01/07 20:01:04;;;;;;;75.50;23.73;;;3.90;99.90;;;;;;6131480;23;20720;-89
2022/01/07 20:03:31;;;;;;;73.77;19.87;;;3.90;99.90;;;;;;6133206;23;20150;-88
2022/01/07 20:05:57;;;;;;;72.10;16.60;;;3.80;99.90;;;;;;6132079;23;20143;-89
2022/01/07 20:08:23;;;;;;;73.88;19.38;;;3.80;99.90;;;;;;6131963;23;20465;-89
2022/01/07 20:10:49;;;;;;;74.78;18.42;;;3.70;99.90;;;;;;6130190;23;20232;-88
2022/01/07 20:13:20;;;;;;;74.90;19.37;;;3.80;99.90;;;;;;6132688;23;20162;-88
2022/01/07 20:15:49;;;;;;;72.75;18.50;;;3.80;99.90;;;;;;6133224;23;20123;-89
2022/01/07 20:18:21;;;;;;;75.75;26.02;;;3.90;99.90;;;;;;6132505;23;20142;-89
2022/01/07 20:20:50;;;;;;;74.32;21.38;;;3.90;99.90;;;;;;6156354;23;20154;-88
2022/01/07 20:23:19;;;;;;;72.38;19.08;;;3.80;99.90;;;;;;6162231;23;20142;-89
2022/01/07 20:25:53;;;;;;;74.28;18.42;;;3.80;99.90;;;;;;6162378;23;20142;-88
2022/01/07 20:28:19;;;;;;;75.97;18.52;;;3.80;99.90;;;;;;6111616;23;20179;-88
2022/01/07 20:30:48;;;;;;;78.45;20.60;;;3.80;99.90;;;;;;6136292;23;20149;-88
2022/01/07 20:33:14;;;;;;;76.72;24.98;;;3.80;99.90;;;;;;6135614;23;20642;-89
2022/01/07 20:35:41;;;;;;;75.10;21.65;;;3.70;99.90;;;;;;6160354;23;20197;-89
2022/01/07 20:38:07;;;;;;;76.93;23.60;;;3.70;99.90;;;;;;6162435;23;20138;-89
2022/01/07 20:40:34;;;;;;;74.15;20.45;;;3.80;99.90;;;;;;6135751;23;20142;-89
2022/01/07 20:43:00;;;;;;;73.38;17.27;;;3.80;99.90;;;;;;6162134;23;20164;-89
2022/01/07 20:45:27;;;;;;;74.57;19.77;;;3.90;99.90;;;;;;6136679;23;20169;-89
2022/01/07 20:47:53;;;;;;;73.35;19.42;;;3.90;99.90;;;;;;6161368;23;20203;-89